This is the latest recevied weather packets stored in our database for station/object DK6GC-10. If no packets are shown the sender has not sent any weather packets the latest 10 day(s).
| Time | Temp. | Humidity | Pressure | Rain* | Wind** | Luminosity | Snow |
|---|---|---|---|---|---|---|---|
| 1777587322 | 13.33° C | 30% | 1025.1 hPa | - | - | - | - |
| 1777586422 | 13.89° C | 28% | 1025 hPa | - | - | - | - |
| 1777585522 | 13.89° C | 28% | 1025 hPa | - | - | - | - |
| 1777584622 | 13.89° C | 27% | 1025 hPa | - | - | - | - |
| 1777583722 | 12.78° C | 34% | 1025.2 hPa | - | - | - | - |
| 1777582822 | 13.33° C | 29% | 1024.9 hPa | - | - | - | - |
| 1777581921 | 13.89° C | 28% | 1024.8 hPa | - | - | - | - |
| 1777581021 | 13.89° C | 28% | 1024.7 hPa | - | - | - | - |
| 1777580121 | 13.89° C | 28% | 1024.7 hPa | - | - | - | - |
| 1777579221 | 13.33° C | 28% | 1024.5 hPa | - | - | - | - |
| 1777578321 | 13.33° C | 31% | 1024.4 hPa | - | - | - | - |
| 1777577420 | 12.22° C | 35% | 1024.4 hPa | - | - | - | - |
| 1777576520 | 12.78° C | 31% | 1024.4 hPa | - | - | - | - |
| 1777575620 | 13.33° C | 36% | 1024.3 hPa | - | - | - | - |
| 1777574719 | 14.44° C | 30% | 1024.2 hPa | - | - | - | - |
| 1777573819 | 15.56° C | 26% | 1023.9 hPa | - | - | - | - |
| 1777572919 | 16.11° C | 25% | 1023.8 hPa | - | - | - | - |
| 1777572023 | 16.11° C | 25% | 1023.7 hPa | - | - | - | - |
| 1777571123 | 16.67° C | 26% | 1023.7 hPa | - | - | - | - |
| 1777570223 | 17.22° C | 26% | 1023.8 hPa | - | - | - | - |
| 1777569323 | 17.22° C | 24% | 1023.7 hPa | - | - | - | - |
| 1777568422 | 17.78° C | 25% | 1023.7 hPa | - | - | - | - |
| 1777567522 | 18.33° C | 25% | 1023.6 hPa | - | - | - | - |
| 1777566621 | 18.33° C | 24% | 1023.7 hPa | - | - | - | - |
| 1777565721 | 18.89° C | 23% | 1023.6 hPa | - | - | - | - |
* Rain since midnight (hover to see other rain measurements)
** Current wind speed in m/s (hover to see current wind gust speed)